Time;durP1;ratioP1;P1;durP2;ratioP2;P2;SDS_P1;SDS_P2;PMS_P1;PMS_P2;Temp;Humidity;BMP_temperature;BMP_pressure;BME280_temperature;BME280_humidity;BME280_pressure;Samples;Min_cycle;Max_cycle;Signal;HPM_P1;HPM_P2
2023/01/18 00:01:04;;;;;;;10.25;4.50;;;;;;;;;;5007663;28;20049;-70
2023/01/18 00:03:32;;;;;;;13.15;4.22;;;;;;;;;;4990931;28;20132;-70
2023/01/18 00:06:04;;;;;;;12.33;4.50;;;;;;;;;;4976117;28;20061;-69
2023/01/18 00:08:34;;;;;;;10.10;4.45;;;;;;;;;;5005643;28;20312;-70
2023/01/18 00:11:04;;;;;;;15.98;4.22;;;;;;;;;;5014384;28;20046;-70
2023/01/18 00:13:34;;;;;;;12.30;4.20;;;;;;;;;;5008087;28;20057;-70
2023/01/18 00:16:02;;;;;;;10.52;4.40;;;;;;;;;;4998851;28;20062;-71
2023/01/18 00:18:28;;;;;;;9.27;4.50;;;;;;;;;;4982857;28;20046;-70
2023/01/18 00:20:55;;;;;;;9.88;4.00;;;;;;;;;;5000940;28;20073;-70
2023/01/18 00:23:24;;;;;;;10.45;3.70;;;;;;;;;;4949785;28;20043;-71
2023/01/18 00:25:51;;;;;;;;;;;;;;;;;;4980655;28;20094;-70
2023/01/18 00:28:20;;;;;;;10.15;4.15;;;;;;;;;;4988536;28;20023;-70
2023/01/18 00:30:47;;;;;;;11.18;4.20;;;;;;;;;;4976617;28;20052;-70
2023/01/18 00:33:17;;;;;;;10.35;4.43;;;;;;;;;;4988401;28;20058;-70
2023/01/18 00:35:44;;;;;;;7.88;3.40;;;;;;;;;;4978683;28;20049;-70
2023/01/18 00:38:11;;;;;;;8.23;3.55;;;;;;;;;;5011070;28;20050;-70
2023/01/18 00:40:40;;;;;;;13.20;4.10;;;;;;;;;;4999873;28;20160;-70
2023/01/18 00:45:54;;;;;;;9.30;4.10;;;;;;;;;;4983986;28;20057;-70
2023/01/18 00:48:20;;;;;;;9.35;4.03;;;;;;;;;;4990467;28;20053;-69
2023/01/18 00:50:48;;;;;;;11.48;3.95;;;;;;;;;;4960227;28;20054;-70
2023/01/18 00:53:15;;;;;;;10.50;4.40;;;;;;;;;;4996449;28;20088;-70
2023/01/18 00:55:43;;;;;;;11.73;4.38;;;;;;;;;;5016958;28;20132;-70
2023/01/18 00:58:12;;;;;;;10.40;4.30;;;;;;;;;;4978145;28;20130;-70
2023/01/18 01:00:39;;;;;;;10.68;4.32;;;;;;;;;;4940543;28;20047;-70
2023/01/18 01:03:12;;;;;;;8.30;3.92;;;;;;;;;;4948050;28;20047;-70
2023/01/18 01:08:22;;;;;;;9.90;4.15;;;;;;;;;;5012803;28;20081;-70
2023/01/18 01:10:51;;;;;;;10.52;4.13;;;;;;;;;;5020645;28;20051;-70
2023/01/18 01:27:12;;;;;;;13.10;4.60;;;;;;;;;;5004963;28;20100;-70
2023/01/18 01:29:39;;;;;;;9.85;4.50;;;;;;;;;;4989271;28;20072;-70
2023/01/18 01:32:06;;;;;;;11.57;4.43;;;;;;;;;;4999378;28;20061;-70
2023/01/18 01:34:33;;;;;;;10.65;4.68;;;;;;;;;;4984344;28;20059;-71
2023/01/18 01:37:02;;;;;;;15.40;4.65;;;;;;;;;;4983834;28;20065;-70
2023/01/18 01:39:30;;;;;;;10.27;4.72;;;;;;;;;;4992166;28;20056;-71
2023/01/18 01:42:00;;;;;;;9.98;4.65;;;;;;;;;;4967225;28;20076;-71
2023/01/18 01:44:51;;;;;;;12.10;4.35;;;;;;;;;;5010771;28;20058;-71
2023/01/18 01:47:25;;;;;;;11.15;4.50;;;;;;;;;;4961382;28;20064;-71
2023/01/18 01:49:53;;;;;;;10.20;3.95;;;;;;;;;;4974993;28;20054;-70
2023/01/18 01:52:22;;;;;;;12.18;4.40;;;;;;;;;;4946471;28;20045;-70
2023/01/18 01:54:54;;;;;;;10.07;4.53;;;;;;;;;;4978744;28;20061;-70
2023/01/18 01:57:21;;;;;;;10.93;4.38;;;;;;;;;;4952927;28;20057;-71
2023/01/18 01:59:51;;;;;;;11.35;5.13;;;;;;;;;;4998013;28;20051;-71
2023/01/18 02:02:18;;;;;;;10.85;4.40;;;;;;;;;;4984859;28;20116;-70
2023/01/18 02:04:52;;;;;;;9.80;4.68;;;;;;;;;;4992913;28;20065;-71
2023/01/18 02:07:19;;;;;;;12.65;4.50;;;;;;;;;;4961779;28;20048;-71
2023/01/18 02:09:46;;;;;;;10.40;4.47;;;;;;;;;;4983166;28;20060;-70
2023/01/18 02:12:13;;;;;;;9.95;4.30;;;;;;;;;;4985791;28;20061;-71
2023/01/18 02:14:40;;;;;;;12.13;4.72;;;;;;;;;;5014270;28;20085;-70
2023/01/18 02:17:16;;;;;;;11.73;5.10;;;;;;;;;;4974501;28;20057;-71
2023/01/18 02:19:57;;;;;;;12.20;4.75;;;;;;;;;;4997539;28;20049;-71
2023/01/18 02:22:33;;;;;;;10.82;4.65;;;;;;;;;;4978066;28;20046;-70
2023/01/18 02:25:21;;;;;;;10.70;4.68;;;;;;;;;;5011279;28;20138;-70
2023/01/18 02:27:51;;;;;;;9.60;4.38;;;;;;;;;;4975189;28;20050;-70
2023/01/18 02:30:25;;;;;;;12.05;4.53;;;;;;;;;;4987649;28;20073;-71
2023/01/18 02:32:58;;;;;;;12.80;5.10;;;;;;;;;;4976602;28;20081;-70
2023/01/18 02:35:34;;;;;;;10.65;4.80;;;;;;;;;;4976881;28;20222;-71
2023/01/18 02:38:05;;;;;;;12.15;5.25;;;;;;;;;;4964395;28;20060;-71
2023/01/18 02:40:38;;;;;;;10.65;4.70;;;;;;;;;;5002204;28;20076;-70
2023/01/18 02:48:37;;;;;;;14.45;5.15;;;;;;;;;;5002999;28;20060;-71
2023/01/18 02:51:05;;;;;;;14.18;4.60;;;;;;;;;;4984375;28;20057;-70
2023/01/18 02:53:33;;;;;;;10.50;4.55;;;;;;;;;;4973726;28;20054;-71
2023/01/18 02:56:00;;;;;;;;;;;;;;;;;;4976675;28;20052;-71
2023/01/18 02:58:31;;;;;;;9.50;4.25;;;;;;;;;;4983554;28;19925;-71
2023/01/18 03:01:01;;;;;;;10.13;4.47;;;;;;;;;;4994750;28;20148;-71
2023/01/18 03:03:30;;;;;;;11.65;4.78;;;;;;;;;;4892310;28;20058;-71
2023/01/18 03:05:58;;;;;;;11.23;4.88;;;;;;;;;;4982910;28;20056;-71
2023/01/18 03:08:25;;;;;;;;;;;;;;;;;;5005202;28;20048;-71
2023/01/18 03:10:56;;;;;;;10.07;4.72;;;;;;;;;;5000495;28;20019;-72
2023/01/18 03:13:27;;;;;;;10.48;4.32;;;;;;;;;;4944785;28;20060;-71
2023/01/18 03:15:56;;;;;;;11.10;4.57;;;;;;;;;;4967371;28;20240;-71
2023/01/18 03:18:29;;;;;;;13.50;5.07;;;;;;;;;;4965367;28;20053;-72
2023/01/18 03:20:57;;;;;;;9.35;4.15;;;;;;;;;;4955653;28;20054;-72
2023/01/18 03:23:38;;;;;;;9.88;4.45;;;;;;;;;;4962874;28;20085;-71
2023/01/18 03:26:05;;;;;;;8.60;4.22;;;;;;;;;;5006565;28;20068;-71
2023/01/18 03:34:13;;;;;;;10.38;4.18;;;;;;;;;;4958298;28;20056;-71
2023/01/18 03:36:41;;;;;;;11.50;4.88;;;;;;;;;;4956889;28;20054;-71
2023/01/18 03:39:11;;;;;;;9.45;4.20;;;;;;;;;;4994922;28;20061;-71
2023/01/18 03:41:41;;;;;;;9.85;4.40;;;;;;;;;;4981915;28;20053;-71
2023/01/18 03:44:09;;;;;;;12.43;4.57;;;;;;;;;;4960379;28;20052;-72
2023/01/18 03:46:36;;;;;;;13.18;4.20;;;;;;;;;;4964364;28;20057;-71
2023/01/18 03:49:05;;;;;;;11.90;4.75;;;;;;;;;;4955269;28;20145;-72
2023/01/18 03:51:38;;;;;;;10.65;4.80;;;;;;;;;;4981824;28;20132;-71
2023/01/18 03:54:07;;;;;;;10.20;4.55;;;;;;;;;;4951194;28;20081;-72
2023/01/18 03:56:41;;;;;;;9.90;4.75;;;;;;;;;;4957832;28;20054;-71
2023/01/18 03:59:13;;;;;;;10.88;4.30;;;;;;;;;;4971979;28;20057;-71
2023/01/18 04:01:43;;;;;;;12.40;4.88;;;;;;;;;;4983068;28;20065;-71
2023/01/18 04:04:11;;;;;;;10.40;4.25;;;;;;;;;;4974266;28;20057;-71
2023/01/18 04:06:41;;;;;;;8.77;4.45;;;;;;;;;;4956381;28;20055;-71
2023/01/18 04:09:08;;;;;;;10.60;4.47;;;;;;;;;;4991278;28;20086;-71
2023/01/18 04:11:35;;;;;;;12.77;5.20;;;;;;;;;;5009757;28;20132;-71
2023/01/18 04:14:02;;;;;;;12.65;4.72;;;;;;;;;;4983117;28;20054;-72
2023/01/18 04:16:30;;;;;;;9.35;4.30;;;;;;;;;;4939134;28;20059;-71
2023/01/18 04:18:57;;;;;;;9.57;4.30;;;;;;;;;;4905372;29;20062;-71
2023/01/18 04:21:27;;;;;;;11.52;5.18;;;;;;;;;;4910938;28;20130;-72
2023/01/18 04:23:54;;;;;;;10.25;4.90;;;;;;;;;;4902758;28;20047;-71
2023/01/18 04:26:21;;;;;;;10.10;4.50;;;;;;;;;;4900109;28;20174;-72
2023/01/18 04:28:50;;;;;;;10.77;4.57;;;;;;;;;;4944909;28;20065;-72
2023/01/18 04:31:24;;;;;;;16.50;4.95;;;;;;;;;;4948424;28;20042;-71
2023/01/18 04:36:16;;;;;;;10.27;4.38;;;;;;;;;;4906986;28;20078;-72
2023/01/18 04:38:47;;;;;;;11.60;4.90;;;;;;;;;;4935862;28;20062;-71
2023/01/18 04:41:15;;;;;;;9.93;4.25;;;;;;;;;;4932106;28;20057;-71
2023/01/18 04:43:42;;;;;;;13.60;4.60;;;;;;;;;;4955164;28;20230;-71
2023/01/18 04:46:09;;;;;;;10.13;4.38;;;;;;;;;;4970480;28;20072;-71
2023/01/18 04:48:36;;;;;;;10.75;4.28;;;;;;;;;;4933757;28;20055;-71
2023/01/18 04:51:02;;;;;;;10.68;4.57;;;;;;;;;;4975796;28;20054;-72
2023/01/18 04:53:29;;;;;;;14.00;4.45;;;;;;;;;;5018415;28;20057;-72
2023/01/18 04:55:58;;;;;;;9.48;4.10;;;;;;;;;;4998427;28;20062;-72
2023/01/18 04:58:25;;;;;;;9.88;4.07;;;;;;;;;;4998168;28;20053;-71
2023/01/18 05:00:52;;;;;;;11.18;4.47;;;;;;;;;;4995230;28;20053;-72
2023/01/18 05:03:19;;;;;;;9.07;4.82;;;;;;;;;;4993759;28;20073;-71
2023/01/18 05:05:46;;;;;;;10.32;4.38;;;;;;;;;;4936955;28;20113;-72
2023/01/18 05:08:13;;;;;;;10.98;4.70;;;;;;;;;;4947939;28;20054;-72
2023/01/18 05:10:42;;;;;;;11.25;4.18;;;;;;;;;;5012159;28;20069;-72
2023/01/18 05:13:13;;;;;;;9.73;4.13;;;;;;;;;;4981087;28;20148;-71
2023/01/18 05:18:06;;;;;;;11.15;3.90;;;;;;;;;;4856651;28;20047;-72
2023/01/18 05:20:35;;;;;;;11.85;4.18;;;;;;;;;;4970970;28;20055;-72
2023/01/18 05:23:09;;;;;;;9.80;4.32;;;;;;;;;;4961077;28;20229;-72
2023/01/18 05:28:16;;;;;;;10.77;4.53;;;;;;;;;;5082385;27;20447;-71
2023/01/18 05:30:43;;;;;;;16.35;4.32;;;;;;;;;;5033815;28;20055;-72
2023/01/18 05:33:13;;;;;;;8.38;3.95;;;;;;;;;;5027848;28;20206;-72
2023/01/18 05:35:40;;;;;;;10.00;4.20;;;;;;;;;;5032908;28;20041;-72
2023/01/18 05:38:11;;;;;;;13.00;3.95;;;;;;;;;;5035894;28;20049;-72
2023/01/18 05:40:42;;;;;;;10.98;4.38;;;;;;;;;;5036062;28;20048;-73
2023/01/18 05:43:09;;;;;;;8.98;4.18;;;;;;;;;;5030779;28;20110;-72
2023/01/18 05:45:40;;;;;;;8.85;3.85;;;;;;;;;;5033237;28;20045;-73
2023/01/18 05:48:09;;;;;;;8.57;4.20;;;;;;;;;;5035727;28;20167;-72
2023/01/18 05:50:38;;;;;;;9.52;4.10;;;;;;;;;;5032324;28;20076;-72
2023/01/18 05:53:04;;;;;;;;;;;;;;;;;;5028729;28;20078;-72
2023/01/18 05:55:36;;;;;;;9.63;3.80;;;;;;;;;;5034729;28;19924;-71
2023/01/18 05:58:03;;;;;;;9.48;4.22;;;;;;;;;;5053614;28;20055;-71
2023/01/18 06:00:31;;;;;;;11.48;4.18;;;;;;;;;;5052372;28;20040;-74
2023/01/18 06:02:59;;;;;;;11.65;4.40;;;;;;;;;;5054217;28;20056;-74
2023/01/18 06:05:37;;;;;;;8.63;3.85;;;;;;;;;;5055738;28;20044;-74
2023/01/18 06:08:08;;;;;;;8.20;3.72;;;;;;;;;;5093353;28;20040;-74
2023/01/18 06:10:34;;;;;;;11.18;3.90;;;;;;;;;;5049025;28;20132;-72
2023/01/18 06:13:01;;;;;;;11.02;4.53;;;;;;;;;;5057254;28;20048;-72
2023/01/18 06:15:28;;;;;;;10.73;4.18;;;;;;;;;;5050424;28;20139;-72
2023/01/18 06:17:55;;;;;;;15.18;4.38;;;;;;;;;;5055947;28;20040;-72
2023/01/18 06:20:32;;;;;;;9.57;4.15;;;;;;;;;;5060225;28;20170;-72
2023/01/18 06:22:59;;;;;;;9.93;3.88;;;;;;;;;;5049297;28;20118;-73
2023/01/18 06:25:26;;;;;;;9.00;4.00;;;;;;;;;;5056097;28;20325;-72
2023/01/18 06:27:57;;;;;;;9.43;3.88;;;;;;;;;;5054883;28;20082;-72
2023/01/18 06:30:28;;;;;;;9.15;3.90;;;;;;;;;;5060026;28;20047;-72
2023/01/18 06:33:03;;;;;;;11.15;4.35;;;;;;;;;;5048872;28;20056;-72
2023/01/18 06:35:34;;;;;;;9.73;3.97;;;;;;;;;;5057724;28;20040;-72
2023/01/18 06:38:01;;;;;;;11.60;4.10;;;;;;;;;;5049806;28;20061;-72
2023/01/18 06:40:28;;;;;;;10.02;4.25;;;;;;;;;;5042848;28;20056;-72
2023/01/18 06:42:55;;;;;;;9.00;3.88;;;;;;;;;;5024229;28;20045;-73
2023/01/18 06:45:24;;;;;;;8.27;3.92;;;;;;;;;;5042013;28;20072;-72
2023/01/18 06:47:53;;;;;;;9.90;3.92;;;;;;;;;;5031711;28;20052;-72
2023/01/18 06:50:20;;;;;;;10.25;4.20;;;;;;;;;;5028293;28;20052;-72
2023/01/18 06:52:54;;;;;;;9.00;3.72;;;;;;;;;;5029018;28;20045;-72
2023/01/18 06:55:21;;;;;;;12.50;4.53;;;;;;;;;;5030869;28;20052;-73
2023/01/18 06:57:48;;;;;;;9.57;3.75;;;;;;;;;;5034894;28;20128;-72
2023/01/18 07:00:16;;;;;;;9.32;3.47;;;;;;;;;;5022847;28;20049;-71
2023/01/18 07:02:43;;;;;;;9.20;3.72;;;;;;;;;;5027672;28;20053;-71
2023/01/18 07:05:12;;;;;;;13.00;4.32;;;;;;;;;;5032784;28;20137;-72
2023/01/18 07:07:39;;;;;;;9.77;4.25;;;;;;;;;;5034574;28;20147;-71
2023/01/18 07:10:10;;;;;;;8.55;3.67;;;;;;;;;;5026259;28;20128;-71
2023/01/18 07:12:38;;;;;;;8.95;4.00;;;;;;;;;;5029312;28;20063;-70
2023/01/18 07:15:06;;;;;;;12.13;3.97;;;;;;;;;;5034386;28;20172;-69
2023/01/18 07:17:38;;;;;;;9.23;3.85;;;;;;;;;;5032717;28;20140;-68
2023/01/18 07:20:09;;;;;;;10.27;4.38;;;;;;;;;;5019589;28;20076;-70
2023/01/18 07:22:36;;;;;;;10.30;4.03;;;;;;;;;;5030338;28;20114;-69
2023/01/18 07:25:03;;;;;;;9.05;3.83;;;;;;;;;;5012961;28;20044;-72
2023/01/18 07:27:33;;;;;;;13.07;4.10;;;;;;;;;;5030763;28;20060;-74
2023/01/18 07:29:59;;;;;;;9.35;4.13;;;;;;;;;;5023762;28;20270;-72
2023/01/18 07:32:26;;;;;;;9.40;4.05;;;;;;;;;;5031607;28;20053;-73
2023/01/18 07:34:53;;;;;;;9.35;4.28;;;;;;;;;;5021924;28;20080;-69
2023/01/18 07:37:20;;;;;;;10.05;4.03;;;;;;;;;;5028705;28;20826;-73
2023/01/18 07:39:48;;;;;;;10.43;4.20;;;;;;;;;;5028855;28;20241;-74
2023/01/18 07:42:15;;;;;;;10.65;4.40;;;;;;;;;;5032442;28;20049;-70
2023/01/18 07:44:45;;;;;;;9.48;4.20;;;;;;;;;;5029850;28;20131;-71
2023/01/18 07:47:15;;;;;;;9.85;3.95;;;;;;;;;;5026957;28;20403;-73
2023/01/18 07:49:42;;;;;;;8.88;4.20;;;;;;;;;;5031866;28;20045;-71
2023/01/18 07:52:09;;;;;;;10.32;3.92;;;;;;;;;;5028851;28;20071;-70
2023/01/18 07:54:37;;;;;;;10.50;4.43;;;;;;;;;;5037914;28;20047;-71
2023/01/18 07:57:05;;;;;;;9.77;3.85;;;;;;;;;;5027204;28;20049;-73
2023/01/18 07:59:34;;;;;;;10.48;3.70;;;;;;;;;;5037204;28;20052;-72
2023/01/18 08:02:04;;;;;;;9.35;3.95;;;;;;;;;;5029057;28;20131;-70
2023/01/18 08:04:35;;;;;;;11.98;4.35;;;;;;;;;;5039769;28;20048;-73
2023/01/18 08:07:04;;;;;;;8.82;4.05;;;;;;;;;;5037844;28;20384;-69
2023/01/18 08:09:32;;;;;;;7.45;3.67;;;;;;;;;;5043964;28;20187;-73
2023/01/18 08:12:00;;;;;;;8.98;4.28;;;;;;;;;;5031794;28;20065;-73
2023/01/18 08:14:30;;;;;;;10.38;3.83;;;;;;;;;;5039088;28;20052;-72
2023/01/18 08:17:05;;;;;;;9.48;4.07;;;;;;;;;;5022125;28;20080;-72
2023/01/18 08:19:32;;;;;;;11.25;4.38;;;;;;;;;;5043585;28;20044;-72
2023/01/18 08:22:06;;;;;;;11.45;4.15;;;;;;;;;;5027493;28;20049;-72
2023/01/18 08:24:33;;;;;;;9.25;3.67;;;;;;;;;;5019290;28;20060;-72
2023/01/18 08:27:02;;;;;;;12.55;4.60;;;;;;;;;;5013775;28;20062;-72
2023/01/18 08:29:31;;;;;;;9.38;4.20;;;;;;;;;;5043633;28;20053;-71
2023/01/18 08:32:05;;;;;;;12.43;4.25;;;;;;;;;;5027807;28;20063;-71
2023/01/18 08:34:35;;;;;;;11.02;4.40;;;;;;;;;;5043233;28;20052;-70
2023/01/18 08:37:03;;;;;;;10.23;4.03;;;;;;;;;;5019983;28;20040;-71
2023/01/18 08:39:32;;;;;;;10.70;3.70;;;;;;;;;;5040608;28;20037;-72
2023/01/18 08:41:59;;;;;;;9.77;4.18;;;;;;;;;;5031360;28;20056;-72
2023/01/18 08:44:27;;;;;;;8.25;4.25;;;;;;;;;;5040172;28;20055;-71
2023/01/18 08:46:54;;;;;;;9.85;4.07;;;;;;;;;;5028642;28;20051;-72
2023/01/18 08:49:26;;;;;;;11.43;4.53;;;;;;;;;;5039348;28;20049;-72
2023/01/18 08:51:53;;;;;;;11.55;4.38;;;;;;;;;;5033735;28;20049;-70
2023/01/18 08:54:20;;;;;;;9.35;3.63;;;;;;;;;;5038264;28;20432;-71
2023/01/18 08:56:53;;;;;;;12.80;4.53;;;;;;;;;;5033073;28;20080;-72
2023/01/18 08:59:21;;;;;;;10.43;4.22;;;;;;;;;;5020104;28;20139;-72
2023/01/18 09:01:52;;;;;;;12.20;4.30;;;;;;;;;;5021869;28;20045;-73
2023/01/18 09:04:19;;;;;;;9.73;3.97;;;;;;;;;;5045059;28;20053;-71
2023/01/18 09:06:50;;;;;;;9.68;3.63;;;;;;;;;;5021452;28;20045;-73
2023/01/18 09:09:17;;;;;;;8.57;3.72;;;;;;;;;;5018829;28;20072;-71
2023/01/18 09:11:46;;;;;;;10.98;4.05;;;;;;;;;;5040426;28;20186;-71
2023/01/18 09:14:14;;;;;;;10.10;4.13;;;;;;;;;;5017542;28;20059;-71
2023/01/18 09:19:24;;;;;;;9.68;4.18;;;;;;;;;;5018533;28;20080;-72
2023/01/18 09:21:52;;;;;;;10.13;4.32;;;;;;;;;;5023150;28;20069;-71
2023/01/18 09:24:19;;;;;;;10.63;4.22;;;;;;;;;;5022348;28;20056;-72
2023/01/18 09:26:49;;;;;;;9.27;3.95;;;;;;;;;;5018296;28;20057;-73
2023/01/18 09:29:16;;;;;;;10.27;4.22;;;;;;;;;;5020295;28;21562;-70
2023/01/18 09:31:44;;;;;;;10.55;3.70;;;;;;;;;;5021206;28;20061;-70
2023/01/18 09:34:12;;;;;;;11.73;4.40;;;;;;;;;;5026708;28;20052;-70
2023/01/18 09:36:39;;;;;;;9.82;4.50;;;;;;;;;;5023517;28;20155;-71
2023/01/18 09:39:15;;;;;;;13.95;4.47;;;;;;;;;;5018187;28;20052;-72
2023/01/18 09:41:43;;;;;;;11.43;4.40;;;;;;;;;;5022915;28;20128;-71
2023/01/18 09:44:17;;;;;;;10.55;4.65;;;;;;;;;;5027282;28;20044;-72
2023/01/18 09:46:44;;;;;;;11.80;4.32;;;;;;;;;;5020784;28;20135;-71
2023/01/18 09:49:15;;;;;;;10.98;4.75;;;;;;;;;;5021543;28;20294;-71
2023/01/18 09:51:46;;;;;;;10.50;4.55;;;;;;;;;;5019829;28;20045;-70
2023/01/18 09:54:24;;;;;;;12.73;4.05;;;;;;;;;;5030200;28;20052;-72
2023/01/18 09:57:08;;;;;;;9.90;4.15;;;;;;;;;;5035651;28;20048;-71
2023/01/18 09:59:38;;;;;;;11.52;4.20;;;;;;;;;;5032039;28;20117;-71
2023/01/18 10:02:14;;;;;;;10.77;4.15;;;;;;;;;;5020745;28;20079;-72
2023/01/18 10:04:43;;;;;;;9.60;4.00;;;;;;;;;;5031780;28;20072;-71
2023/01/18 10:07:13;;;;;;;15.25;4.60;;;;;;;;;;5017713;28;20123;-71
2023/01/18 10:09:44;;;;;;;10.68;4.43;;;;;;;;;;5033038;28;20049;-71
2023/01/18 10:12:19;;;;;;;13.50;4.47;;;;;;;;;;5031958;28;20056;-72
2023/01/18 10:14:50;;;;;;;10.27;4.57;;;;;;;;;;5037832;28;20044;-71
2023/01/18 10:17:23;;;;;;;10.13;4.25;;;;;;;;;;5023452;28;20079;-71
2023/01/18 10:19:52;;;;;;;10.18;4.05;;;;;;;;;;5039511;28;20143;-73
2023/01/18 10:22:22;;;;;;;13.57;4.45;;;;;;;;;;5023608;28;20167;-72
2023/01/18 10:24:58;;;;;;;10.88;4.18;;;;;;;;;;5044272;28;20109;-72
2023/01/18 10:27:39;;;;;;;11.93;4.72;;;;;;;;;;5021257;28;20057;-71
2023/01/18 10:30:20;;;;;;;11.32;4.75;;;;;;;;;;5022648;28;20126;-71
2023/01/18 10:32:57;;;;;;;14.80;4.65;;;;;;;;;;5042400;28;20056;-72
2023/01/18 10:35:42;;;;;;;12.35;4.20;;;;;;;;;;5041076;28;20135;-72
2023/01/18 10:38:28;;;;;;;12.82;4.68;;;;;;;;;;5030107;28;20048;-71
2023/01/18 10:41:00;;;;;;;9.75;4.78;;;;;;;;;;5034024;28;20061;-72
2023/01/18 10:43:31;;;;;;;8.88;4.20;;;;;;;;;;5032987;28;20171;-72
2023/01/18 10:45:58;;;;;;;14.32;5.10;;;;;;;;;;5039254;28;20237;-72
2023/01/18 10:48:27;;;;;;;11.40;4.85;;;;;;;;;;5030212;28;20052;-70
2023/01/18 10:50:57;;;;;;;10.57;4.63;;;;;;;;;;5039611;28;20056;-74
2023/01/18 10:53:26;;;;;;;10.98;4.75;;;;;;;;;;5024650;28;20048;-72
2023/01/18 10:55:55;;;;;;;10.55;4.40;;;;;;;;;;5043375;28;20052;-71
2023/01/18 10:58:29;;;;;;;11.70;4.80;;;;;;;;;;5030278;28;20036;-74
2023/01/18 11:01:02;;;;;;;9.60;5.10;;;;;;;;;;5037744;28;20151;-70
2023/01/18 11:03:37;;;;;;;8.60;4.15;;;;;;;;;;5026141;28;20044;-71
2023/01/18 11:06:06;;;;;;;14.95;4.95;;;;;;;;;;5044353;28;20106;-71
2023/01/18 11:08:34;;;;;;;11.50;4.82;;;;;;;;;;5035433;28;20203;-70
2023/01/18 11:11:02;;;;;;;11.48;4.55;;;;;;;;;;5040144;28;20052;-75
2023/01/18 11:13:40;;;;;;;12.15;4.85;;;;;;;;;;5029878;28;20056;-74
2023/01/18 11:16:14;;;;;;;13.60;5.20;;;;;;;;;;5043728;28;20064;-75
2023/01/18 11:18:40;;;;;;;;;;;;;;;;;;5033736;28;20159;-73
2023/01/18 11:21:11;;;;;;;12.07;4.78;;;;;;;;;;5031993;27;19924;-72
2023/01/18 11:23:38;;;;;;;8.48;4.15;;;;;;;;;;5032262;28;20048;-71
2023/01/18 11:26:08;;;;;;;14.50;5.77;;;;;;;;;;5042270;28;20075;-74
2023/01/18 11:28:38;;;;;;;11.55;4.78;;;;;;;;;;5034561;28;20044;-72
2023/01/18 11:31:10;;;;;;;12.02;4.80;;;;;;;;;;5035757;28;20168;-73
2023/01/18 11:33:41;;;;;;;10.00;4.57;;;;;;;;;;5036334;28;20053;-72
2023/01/18 11:36:08;;;;;;;9.63;4.32;;;;;;;;;;5041923;28;20067;-73
2023/01/18 11:38:35;;;;;;;8.43;4.28;;;;;;;;;;5036942;28;20090;-70
2023/01/18 11:41:03;;;;;;;13.40;5.32;;;;;;;;;;5034430;28;20048;-73
2023/01/18 11:43:31;;;;;;;13.68;5.10;;;;;;;;;;5034448;28;20057;-71
2023/01/18 11:46:01;;;;;;;10.07;4.93;;;;;;;;;;5020622;28;20049;-73
2023/01/18 11:48:31;;;;;;;9.90;4.50;;;;;;;;;;5022787;28;20040;-70
2023/01/18 11:51:05;;;;;;;11.60;4.70;;;;;;;;;;5019211;28;20045;-74
2023/01/18 11:53:42;;;;;;;8.32;4.35;;;;;;;;;;5021843;28;20044;-72
2023/01/18 11:56:11;;;;;;;13.75;5.13;;;;;;;;;;5037971;28;20268;-71
2023/01/18 11:58:38;;;;;;;15.10;5.32;;;;;;;;;;5040173;28;20037;-70
2023/01/18 12:01:20;;;;;;;13.60;5.47;;;;;;;;;;5033117;28;20246;-70
2023/01/18 12:03:52;;;;;;;11.73;4.60;;;;;;;;;;5022042;28;20048;-73
2023/01/18 12:06:23;;;;;;;11.13;4.45;;;;;;;;;;5028801;28;20048;-72
2023/01/18 12:09:09;;;;;;;10.20;4.70;;;;;;;;;;5035801;28;20048;-71
2023/01/18 12:11:41;;;;;;;11.90;5.05;;;;;;;;;;5029248;28;20052;-70
2023/01/18 12:14:26;;;;;;;11.27;4.93;;;;;;;;;;5040687;28;20052;-73
2023/01/18 12:17:03;;;;;;;13.75;4.93;;;;;;;;;;5017339;28;20214;-71
2023/01/18 12:19:43;;;;;;;12.93;4.88;;;;;;;;;;5044085;28;20053;-73
2023/01/18 12:22:34;;;;;;;16.48;5.65;;;;;;;;;;5023217;28;20411;-72
2023/01/18 12:25:07;;;;;;;10.57;4.57;;;;;;;;;;5023548;28;20048;-68
2023/01/18 12:27:40;;;;;;;10.90;4.60;;;;;;;;;;5023420;28;20060;-70
2023/01/18 12:30:16;;;;;;;11.25;4.45;;;;;;;;;;5032171;28;20083;-71
2023/01/18 12:33:03;;;;;;;13.85;5.05;;;;;;;;;;5020690;28;20049;-71
2023/01/18 12:35:49;;;;;;;11.88;4.15;;;;;;;;;;5034879;28;20103;-68
2023/01/18 12:38:21;;;;;;;11.00;4.68;;;;;;;;;;5018726;28;20076;-70
2023/01/18 12:41:02;;;;;;;12.27;5.05;;;;;;;;;;5033869;28;20055;-72
2023/01/18 12:43:36;;;;;;;13.18;4.95;;;;;;;;;;5020191;28;20075;-71
2023/01/18 12:46:05;;;;;;;10.65;5.07;;;;;;;;;;5034125;28;20126;-71
2023/01/18 12:48:39;;;;;;;10.32;4.63;;;;;;;;;;5024458;28;20053;-69
2023/01/18 12:51:13;;;;;;;12.80;4.75;;;;;;;;;;5031704;28;20313;-69
2023/01/18 12:53:44;;;;;;;8.40;4.18;;;;;;;;;;5025140;28;20046;-71
2023/01/18 12:56:14;;;;;;;11.27;4.25;;;;;;;;;;5034657;28;20049;-70
2023/01/18 12:58:51;;;;;;;12.48;4.25;;;;;;;;;;5022155;28;20144;-69
2023/01/18 13:01:21;;;;;;;9.35;4.05;;;;;;;;;;5032597;28;20052;-68
2023/01/18 13:03:50;;;;;;;11.13;3.78;;;;;;;;;;5023539;28;20135;-69
2023/01/18 13:06:25;;;;;;;8.73;4.00;;;;;;;;;;5037312;28;20056;-72
2023/01/18 13:08:57;;;;;;;10.93;3.90;;;;;;;;;;5037188;28;20056;-69
2023/01/18 13:11:25;;;;;;;10.02;3.42;;;;;;;;;;5034344;28;20049;-70
2023/01/18 13:13:59;;;;;;;7.72;3.15;;;;;;;;;;5037473;28;20045;-70
2023/01/18 13:16:32;;;;;;;9.00;3.70;;;;;;;;;;5043251;28;20074;-72
2023/01/18 13:19:02;;;;;;;10.60;3.53;;;;;;;;;;5023592;28;20115;-69
2023/01/18 13:21:40;;;;;;;10.38;3.85;;;;;;;;;;5040679;28;20049;-71
2023/01/18 13:24:14;;;;;;;7.90;3.22;;;;;;;;;;5036945;28;20508;-71
2023/01/18 13:26:41;;;;;;;6.90;3.00;;;;;;;;;;5038145;28;20069;-72
2023/01/18 13:29:15;;;;;;;10.93;3.20;;;;;;;;;;5021034;28;20428;-74
2023/01/18 13:31:43;;;;;;;8.27;3.40;;;;;;;;;;5039703;28;20054;-69
2023/01/18 13:34:20;;;;;;;8.35;3.20;;;;;;;;;;5025374;28;20048;-72
2023/01/18 13:36:52;;;;;;;7.82;3.70;;;;;;;;;;5041545;28;20136;-70
2023/01/18 13:39:24;;;;;;;8.10;3.03;;;;;;;;;;5025429;28;20151;-71
2023/01/18 13:42:08;;;;;;;10.65;2.95;;;;;;;;;;5043894;28;20135;-71
2023/01/18 13:44:37;;;;;;;6.85;3.05;;;;;;;;;;5026768;28;20049;-71
2023/01/18 13:47:21;;;;;;;8.77;3.38;;;;;;;;;;5039021;28;20057;-69
2023/01/18 13:49:48;;;;;;;8.23;3.00;;;;;;;;;;5031808;28;20074;-78
2023/01/18 13:52:30;;;;;;;10.27;3.03;;;;;;;;;;5047666;28;20072;-75
2023/01/18 13:55:06;;;;;;;8.60;3.00;;;;;;;;;;5030300;28;20052;-74
2023/01/18 13:57:59;;;;;;;8.02;3.10;;;;;;;;;;5044935;28;20058;-74
2023/01/18 14:03:53;;;;;;;7.53;2.92;;;;;;;;;;5050448;28;20195;-78
2023/01/18 14:10:31;;;;;;;;;;;;;;;;;;;;;
2023/01/18 14:13:24;;;;;;;5.85;2.75;;;;;;;;;;5019351;28;20057;-74
2023/01/18 14:36:25;;;;;;;5.00;2.22;;;;;;;;;;4977507;28;20053;-70
2023/01/18 14:39:22;;;;;;;6.13;2.45;;;;;;;;;;4978194;28;20049;-73
2023/01/18 14:42:52;;;;;;;;;;;;;;;;;;;;;
2023/01/18 14:46:17;;;;;;;7.70;2.50;;;;;;;;;;4967351;28;20042;-76
2023/01/18 14:49:44;;;;;;;;;;;;;;;;;;;;;
2023/01/18 14:52:53;;;;;;;;;;;;;;;;;;;;;
2023/01/18 14:56:05;;;;;;;;;;;;;;;;;;;;;
2023/01/18 14:59:29;;;;;;;4.97;2.17;;;;;;;;;;5016565;28;20060;-76
2023/01/18 15:05:31;;;;;;;5.63;2.10;;;;;;;;;;5013325;28;20048;-72
2023/01/18 15:08:03;;;;;;;7.15;2.60;;;;;;;;;;5034788;28;20040;-74
2023/01/18 15:10:31;;;;;;;7.32;2.15;;;;;;;;;;5046113;28;20075;-77
2023/01/18 15:12:59;;;;;;;10.68;2.40;;;;;;;;;;5026383;28;20052;-74
2023/01/18 15:15:26;;;;;;;7.13;2.38;;;;;;;;;;5031613;28;20049;-71
2023/01/18 15:17:55;;;;;;;6.35;2.63;;;;;;;;;;5026278;28;20199;-79
2023/01/18 15:20:22;;;;;;;4.78;2.30;;;;;;;;;;5029712;28;20139;-71
2023/01/18 15:22:54;;;;;;;11.95;2.72;;;;;;;;;;5032052;28;20052;-78
2023/01/18 15:25:24;;;;;;;8.32;2.40;;;;;;;;;;5041851;28;20059;-74
2023/01/18 15:27:52;;;;;;;6.88;2.42;;;;;;;;;;5030004;28;20141;-73
2023/01/18 15:30:21;;;;;;;5.97;2.47;;;;;;;;;;5045826;28;20052;-73
2023/01/18 15:32:48;;;;;;;;;;;;;;;;;;5034874;28;20155;-75
2023/01/18 15:38:01;;;;;;;8.10;2.70;;;;;;;;;;5034790;28;20053;-74
2023/01/18 15:40:32;;;;;;;9.43;2.47;;;;;;;;;;5042462;28;20048;-74
2023/01/18 15:43:02;;;;;;;7.28;2.40;;;;;;;;;;5032363;28;20055;-75
2023/01/18 15:45:30;;;;;;;8.43;2.40;;;;;;;;;;5042152;28;20083;-74
2023/01/18 15:47:58;;;;;;;5.97;2.45;;;;;;;;;;5035695;28;20037;-75
2023/01/18 15:50:27;;;;;;;6.43;2.47;;;;;;;;;;5042380;28;20068;-77
2023/01/18 15:53:05;;;;;;;5.35;2.20;;;;;;;;;;5033553;28;20057;-75
2023/01/18 15:55:37;;;;;;;7.03;2.47;;;;;;;;;;5035006;28;20049;-80
2023/01/18 15:58:07;;;;;;;6.13;2.47;;;;;;;;;;5037320;28;20076;-79
2023/01/18 16:00:54;;;;;;;7.63;2.30;;;;;;;;;;5052788;28;20045;-70
2023/01/18 16:03:22;;;;;;;5.43;2.40;;;;;;;;;;5031109;28;20151;-75
2023/01/18 16:05:56;;;;;;;10.35;2.38;;;;;;;;;;5022366;28;20049;-73
2023/01/18 16:08:23;;;;;;;5.60;2.38;;;;;;;;;;5021679;28;20124;-71
2023/01/18 16:10:54;;;;;;;7.53;2.60;;;;;;;;;;5019158;28;20056;-76
2023/01/18 16:13:21;;;;;;;8.20;2.47;;;;;;;;;;5039778;28;20052;-76
2023/01/18 16:16:04;;;;;;;6.32;2.50;;;;;;;;;;5020641;28;20049;-77
2023/01/18 16:18:31;;;;;;;5.25;2.08;;;;;;;;;;5023988;28;20087;-74
2023/01/18 16:21:00;;;;;;;6.38;2.47;;;;;;;;;;5018702;28;20092;-74